sensor_id;sensor_type;location;lat;lon;timestamp;pressure;altitude;pressure_sealevel;temperature;humidity
42671;BME280;28283;55.426;37.756;2023-05-12T00:02:33;99970.31;;;9.96;74.10
42671;BME280;28283;55.426;37.756;2023-05-12T00:07:34;99967.59;;;10.04;73.28
42671;BME280;28283;55.426;37.756;2023-05-12T00:12:35;99974.56;;;10.28;72.09
42671;BME280;28283;55.426;37.756;2023-05-12T00:17:36;99957.81;;;10.41;71.17
42671;BME280;28283;55.426;37.756;2023-05-12T00:22:37;99960.88;;;10.53;70.84
42671;BME280;28283;55.426;37.756;2023-05-12T00:27:38;99967.28;;;10.37;71.57
42671;BME280;28283;55.426;37.756;2023-05-12T00:32:39;99953.38;;;9.95;73.37
42671;BME280;28283;55.426;37.756;2023-05-12T00:37:39;99979.47;;;9.86;75.09
42671;BME280;28283;55.426;37.756;2023-05-12T00:42:40;99969.19;;;9.75;74.92
42671;BME280;28283;55.426;37.756;2023-05-12T00:47:42;99961.44;;;9.57;75.44
42671;BME280;28283;55.426;37.756;2023-05-12T00:52:43;99966.53;;;9.44;76.16
42671;BME280;28283;55.426;37.756;2023-05-12T00:57:44;99959.41;;;9.36;76.03
42671;BME280;28283;55.426;37.756;2023-05-12T01:02:45;99977.81;;;9.39;76.38
42671;BME280;28283;55.426;37.756;2023-05-12T01:07:47;99983.22;;;9.31;77.54
42671;BME280;28283;55.426;37.756;2023-05-12T01:12:48;99983.19;;;9.39;76.19
42671;BME280;28283;55.426;37.756;2023-05-12T01:17:56;99980.44;;;9.47;75.11
42671;BME280;28283;55.426;37.756;2023-05-12T01:23:01;99974.19;;;9.55;74.22
42671;BME280;28283;55.426;37.756;2023-05-12T01:28:02;99985.94;;;9.54;74.52
42671;BME280;28283;55.426;37.756;2023-05-12T01:33:03;99991.91;;;9.64;73.50
42671;BME280;28283;55.426;37.756;2023-05-12T01:38:04;99982.78;;;9.73;73.55
42671;BME280;28283;55.426;37.756;2023-05-12T01:43:05;99983.13;;;9.70;73.93
42671;BME280;28283;55.426;37.756;2023-05-12T01:48:05;99985.09;;;9.53;73.44
42671;BME280;28283;55.426;37.756;2023-05-12T01:53:07;99992.81;;;9.57;74.27
42671;BME280;28283;55.426;37.756;2023-05-12T01:58:09;100002.94;;;9.69;72.92
42671;BME280;28283;55.426;37.756;2023-05-12T02:03:10;99999.06;;;9.72;72.68
42671;BME280;28283;55.426;37.756;2023-05-12T02:08:11;99983.69;;;9.66;72.82
42671;BME280;28283;55.426;37.756;2023-05-12T02:13:11;99992.50;;;9.74;72.46
42671;BME280;28283;55.426;37.756;2023-05-12T02:18:12;99990.19;;;9.71;72.63
42671;BME280;28283;55.426;37.756;2023-05-12T02:23:13;99978.66;;;9.63;71.72
42671;BME280;28283;55.426;37.756;2023-05-12T02:28:14;99987.66;;;9.70;71.94
42671;BME280;28283;55.426;37.756;2023-05-12T02:33:16;100000.91;;;9.71;72.05
42671;BME280;28283;55.426;37.756;2023-05-12T02:38:17;99979.00;;;9.60;72.95
42671;BME280;28283;55.426;37.756;2023-05-12T02:43:17;99982.16;;;9.63;71.76
42671;BME280;28283;55.426;37.756;2023-05-12T02:48:18;99980.81;;;9.67;71.11
42671;BME280;28283;55.426;37.756;2023-05-12T02:53:19;99993.84;;;9.93;70.38
42671;BME280;28283;55.426;37.756;2023-05-12T02:58:20;99988.19;;;9.88;70.58
42671;BME280;28283;55.426;37.756;2023-05-12T03:03:21;100006.03;;;9.81;71.01
42671;BME280;28283;55.426;37.756;2023-05-12T03:08:21;100006.03;;;9.81;71.77
42671;BME280;28283;55.426;37.756;2023-05-12T03:13:22;100003.75;;;9.93;71.02
42671;BME280;28283;55.426;37.756;2023-05-12T03:18:23;99999.47;;;10.07;70.44
42671;BME280;28283;55.426;37.756;2023-05-12T03:23:23;100011.69;;;10.24;69.61
42671;BME280;28283;55.426;37.756;2023-05-12T03:28:24;100004.59;;;10.31;69.54
42671;BME280;28283;55.426;37.756;2023-05-12T03:33:25;99973.44;;;10.22;68.92
42671;BME280;28283;55.426;37.756;2023-05-12T03:38:26;99967.53;;;10.27;70.38
42671;BME280;28283;55.426;37.756;2023-05-12T03:43:27;100000.50;;;10.59;69.77
42671;BME280;28283;55.426;37.756;2023-05-12T03:48:28;99988.16;;;10.64;69.65
42671;BME280;28283;55.426;37.756;2023-05-12T03:53:28;100004.25;;;10.94;69.18
42671;BME280;28283;55.426;37.756;2023-05-12T03:58:29;99987.75;;;10.97;68.63
42671;BME280;28283;55.426;37.756;2023-05-12T04:03:30;99979.63;;;11.12;67.51
42671;BME280;28283;55.426;37.756;2023-05-12T04:08:31;100006.28;;;11.43;67.17
42671;BME280;28283;55.426;37.756;2023-05-12T04:13:32;99994.75;;;11.50;65.15
42671;BME280;28283;55.426;37.756;2023-05-12T04:18:33;99958.13;;;11.34;64.60
42671;BME280;28283;55.426;37.756;2023-05-12T04:23:35;99981.03;;;11.66;64.58
42671;BME280;28283;55.426;37.756;2023-05-12T04:28:36;99997.53;;;11.99;65.57
42671;BME280;28283;55.426;37.756;2023-05-12T04:33:36;99987.50;;;12.15;63.40
42671;BME280;28283;55.426;37.756;2023-05-12T04:38:37;99983.91;;;12.08;63.56
42671;BME280;28283;55.426;37.756;2023-05-12T04:43:37;100002.91;;;12.21;64.73
42671;BME280;28283;55.426;37.756;2023-05-12T04:48:38;100005.22;;;12.24;66.76
42671;BME280;28283;55.426;37.756;2023-05-12T04:53:41;100002.59;;;12.37;66.12
42671;BME280;28283;55.426;37.756;2023-05-12T04:58:42;100000.28;;;12.63;67.69
42671;BME280;28283;55.426;37.756;2023-05-12T05:03:43;100003.94;;;12.90;67.46
42671;BME280;28283;55.426;37.756;2023-05-12T05:08:43;100011.72;;;13.13;68.18
42671;BME280;28283;55.426;37.756;2023-05-12T05:13:44;99991.66;;;13.29;67.63
42671;BME280;28283;55.426;37.756;2023-05-12T05:18:45;99968.63;;;13.33;65.71
42671;BME280;28283;55.426;37.756;2023-05-12T05:23:46;99984.91;;;13.66;66.48
42671;BME280;28283;55.426;37.756;2023-05-12T05:28:46;99993.47;;;14.03;64.89
42671;BME280;28283;55.426;37.756;2023-05-12T05:33:47;99979.28;;;14.35;63.55
42671;BME280;28283;55.426;37.756;2023-05-12T05:38:48;99985.69;;;14.74;63.87
42671;BME280;28283;55.426;37.756;2023-05-12T05:43:48;99988.56;;;14.85;61.37
42671;BME280;28283;55.426;37.756;2023-05-12T05:48:49;99988.16;;;14.82;60.51
42671;BME280;28283;55.426;37.756;2023-05-12T05:53:50;99991.53;;;14.64;58.42
42671;BME280;28283;55.426;37.756;2023-05-12T05:58:50;99994.03;;;14.59;61.56
42671;BME280;28283;55.426;37.756;2023-05-12T06:03:51;99994.56;;;15.01;60.94
42671;BME280;28283;55.426;37.756;2023-05-12T06:08:52;99986.06;;;15.36;57.57
42671;BME280;28283;55.426;37.756;2023-05-12T06:13:55;99966.50;;;15.27;56.22
42671;BME280;28283;55.426;37.756;2023-05-12T06:18:56;99975.78;;;15.44;56.70
42671;BME280;28283;55.426;37.756;2023-05-12T06:23:57;99983.25;;;15.88;55.63
42671;BME280;28283;55.426;37.756;2023-05-12T06:28:57;99989.19;;;16.03;55.93
42671;BME280;28283;55.426;37.756;2023-05-12T06:33:58;99987.47;;;16.52;55.78
42671;BME280;28283;55.426;37.756;2023-05-12T06:38:59;99987.69;;;16.94;53.00
42671;BME280;28283;55.426;37.756;2023-05-12T06:44:00;99986.56;;;16.84;52.81
42671;BME280;28283;55.426;37.756;2023-05-12T06:49:01;99945.13;;;16.88;52.71
42671;BME280;28283;55.426;37.756;2023-05-12T06:54:02;99972.34;;;17.49;46.89
42671;BME280;28283;55.426;37.756;2023-05-12T06:59:03;99976.97;;;17.30;47.51
42671;BME280;28283;55.426;37.756;2023-05-12T07:04:04;99966.47;;;17.03;48.27
42671;BME280;28283;55.426;37.756;2023-05-12T07:09:04;99973.59;;;17.34;45.93
42671;BME280;28283;55.426;37.756;2023-05-12T07:14:05;99965.38;;;17.53;46.07
42671;BME280;28283;55.426;37.756;2023-05-12T07:19:05;99950.53;;;17.37;46.09
42671;BME280;28283;55.426;37.756;2023-05-12T07:24:08;99957.56;;;17.56;44.78
42671;BME280;28283;55.426;37.756;2023-05-12T07:29:09;99967.38;;;17.88;43.92
42671;BME280;28283;55.426;37.756;2023-05-12T07:34:10;99962.94;;;18.05;45.26
42671;BME280;28283;55.426;37.756;2023-05-12T07:39:11;99969.78;;;18.43;41.52
42671;BME280;28283;55.426;37.756;2023-05-12T07:44:14;99972.22;;;18.80;40.28
42671;BME280;28283;55.426;37.756;2023-05-12T07:49:15;99960.88;;;19.24;37.44
42671;BME280;28283;55.426;37.756;2023-05-12T07:54:16;99964.06;;;19.78;39.21
42671;BME280;28283;55.426;37.756;2023-05-12T07:59:16;99952.22;;;19.73;37.49
42671;BME280;28283;55.426;37.756;2023-05-12T08:04:17;99961.84;;;20.09;40.13
42671;BME280;28283;55.426;37.756;2023-05-12T08:09:17;99940.25;;;19.91;35.26
42671;BME280;28283;55.426;37.756;2023-05-12T08:14:18;99954.97;;;20.07;35.18
42671;BME280;28283;55.426;37.756;2023-05-12T08:19:18;99940.13;;;19.52;34.79
42671;BME280;28283;55.426;37.756;2023-05-12T08:24:19;99944.47;;;19.81;33.24
42671;BME280;28283;55.426;37.756;2023-05-12T08:29:21;99938.00;;;19.25;30.22
42671;BME280;28283;55.426;37.756;2023-05-12T08:34:21;99951.59;;;19.54;33.87
42671;BME280;28283;55.426;37.756;2023-05-12T08:39:22;99947.56;;;19.56;34.47
42671;BME280;28283;55.426;37.756;2023-05-12T08:44:22;99945.97;;;19.89;35.03
42671;BME280;28283;55.426;37.756;2023-05-12T08:49:25;99908.91;;;19.93;33.87
42671;BME280;28283;55.426;37.756;2023-05-12T08:54:29;99944.47;;;20.54;33.97
42671;BME280;28283;55.426;37.756;2023-05-12T08:59:30;99919.31;;;20.69;32.11
42671;BME280;28283;55.426;37.756;2023-05-12T09:04:31;99933.78;;;20.70;30.05
42671;BME280;28283;55.426;37.756;2023-05-12T09:09:32;99921.50;;;20.72;29.83
42671;BME280;28283;55.426;37.756;2023-05-12T09:14:36;99922.28;;;20.90;29.71
42671;BME280;28283;55.426;37.756;2023-05-12T09:19:38;99896.47;;;21.03;28.68
42671;BME280;28283;55.426;37.756;2023-05-12T09:24:39;99908.72;;;21.49;31.03
42671;BME280;28283;55.426;37.756;2023-05-12T09:29:47;99906.63;;;21.62;27.53
42671;BME280;28283;55.426;37.756;2023-05-12T09:34:50;99885.81;;;21.28;27.06
42671;BME280;28283;55.426;37.756;2023-05-12T09:40:01;99886.66;;;21.61;26.71
42671;BME280;28283;55.426;37.756;2023-05-12T09:45:06;99889.63;;;21.27;25.48
42671;BME280;28283;55.426;37.756;2023-05-12T09:50:10;99882.22;;;21.01;24.79
42671;BME280;28283;55.426;37.756;2023-05-12T09:55:12;99873.03;;;21.12;25.38
42671;BME280;28283;55.426;37.756;2023-05-12T10:00:14;99887.81;;;21.11;25.70
42671;BME280;28283;55.426;37.756;2023-05-12T10:05:19;99883.63;;;21.03;25.09
42671;BME280;28283;55.426;37.756;2023-05-12T10:10:23;99894.81;;;21.02;24.93
42671;BME280;28283;55.426;37.756;2023-05-12T10:15:26;99892.50;;;21.43;24.84
42671;BME280;28283;55.426;37.756;2023-05-12T10:20:27;99885.53;;;21.89;24.73
42671;BME280;28283;55.426;37.756;2023-05-12T10:25:28;99875.00;;;22.14;23.84
42671;BME280;28283;55.426;37.756;2023-05-12T10:30:30;99870.66;;;22.76;23.65
42671;BME280;28283;55.426;37.756;2023-05-12T10:35:32;99876.59;;;22.57;23.38
42671;BME280;28283;55.426;37.756;2023-05-12T10:40:33;99867.78;;;22.45;23.61
42671;BME280;28283;55.426;37.756;2023-05-12T10:45:35;99871.72;;;22.69;23.56
42671;BME280;28283;55.426;37.756;2023-05-12T10:50:36;99874.34;;;23.12;23.08
42671;BME280;28283;55.426;37.756;2023-05-12T10:55:42;99870.00;;;23.42;22.82
42671;BME280;28283;55.426;37.756;2023-05-12T11:00:48;99870.25;;;23.56;24.47
42671;BME280;28283;55.426;37.756;2023-05-12T11:06:03;99874.94;;;23.45;23.45
42671;BME280;28283;55.426;37.756;2023-05-12T11:11:04;99845.69;;;22.62;23.61
42671;BME280;28283;55.426;37.756;2023-05-12T11:16:05;99859.78;;;22.28;24.03
42671;BME280;28283;55.426;37.756;2023-05-12T11:21:10;99871.88;;;22.42;23.96
42671;BME280;28283;55.426;37.756;2023-05-12T11:26:16;99861.97;;;22.31;23.75
42671;BME280;28283;55.426;37.756;2023-05-12T11:31:18;99852.09;;;22.30;23.38
42671;BME280;28283;55.426;37.756;2023-05-12T11:36:19;99861.34;;;22.82;23.21
42671;BME280;28283;55.426;37.756;2023-05-12T11:41:21;99864.06;;;22.77;23.72
42671;BME280;28283;55.426;37.756;2023-05-12T11:46:27;99857.38;;;22.42;23.68
42671;BME280;28283;55.426;37.756;2023-05-12T11:51:28;99860.22;;;22.15;24.58
42671;BME280;28283;55.426;37.756;2023-05-12T11:56:28;99851.09;;;21.99;23.99
42671;BME280;28283;55.426;37.756;2023-05-12T12:01:29;99854.94;;;22.03;24.78
42671;BME280;28283;55.426;37.756;2023-05-12T12:06:42;99846.13;;;21.96;24.75
42671;BME280;28283;55.426;37.756;2023-05-12T12:11:43;99856.78;;;21.92;24.54
42671;BME280;28283;55.426;37.756;2023-05-12T12:16:43;99859.34;;;21.66;24.34
42671;BME280;28283;55.426;37.756;2023-05-12T12:21:44;99856.19;;;21.47;24.53
42671;BME280;28283;55.426;37.756;2023-05-12T12:26:44;99853.13;;;21.44;25.49
42671;BME280;28283;55.426;37.756;2023-05-12T12:31:45;99857.41;;;22.04;24.94
42671;BME280;28283;55.426;37.756;2023-05-12T12:36:46;99853.94;;;21.71;25.01
42671;BME280;28283;55.426;37.756;2023-05-12T12:41:47;99859.31;;;21.61;24.87
42671;BME280;28283;55.426;37.756;2023-05-12T12:46:48;99847.81;;;21.97;25.41
42671;BME280;28283;55.426;37.756;2023-05-12T12:51:49;99843.22;;;22.12;24.39
42671;BME280;28283;55.426;37.756;2023-05-12T12:56:50;99841.69;;;22.27;23.48
42671;BME280;28283;55.426;37.756;2023-05-12T13:01:51;99835.69;;;22.30;24.32
42671;BME280;28283;55.426;37.756;2023-05-12T13:06:52;99828.75;;;22.17;24.28
42671;BME280;28283;55.426;37.756;2023-05-12T13:11:52;99831.50;;;22.22;24.07
42671;BME280;28283;55.426;37.756;2023-05-12T13:16:54;99814.50;;;22.15;23.43
42671;BME280;28283;55.426;37.756;2023-05-12T13:21:54;99826.19;;;22.05;23.46
42671;BME280;28283;55.426;37.756;2023-05-12T13:26:55;99798.44;;;22.34;23.40
42671;BME280;28283;55.426;37.756;2023-05-12T13:31:56;99811.56;;;22.27;23.34
42671;BME280;28283;55.426;37.756;2023-05-12T13:36:57;99803.47;;;22.05;23.02
42671;BME280;28283;55.426;37.756;2023-05-12T13:41:58;99805.91;;;21.96;23.51
42671;BME280;28283;55.426;37.756;2023-05-12T13:46:59;99814.63;;;21.88;23.71
42671;BME280;28283;55.426;37.756;2023-05-12T13:52:00;99810.47;;;22.28;23.89
42671;BME280;28283;55.426;37.756;2023-05-12T13:57:00;99804.00;;;21.97;24.43
42671;BME280;28283;55.426;37.756;2023-05-12T14:02:03;99791.00;;;22.24;23.74
42671;BME280;28283;55.426;37.756;2023-05-12T14:07:04;99785.47;;;22.19;23.70
42671;BME280;28283;55.426;37.756;2023-05-12T14:12:05;99798.28;;;22.03;24.35
42671;BME280;28283;55.426;37.756;2023-05-12T14:17:06;99801.31;;;22.07;23.75
42671;BME280;28283;55.426;37.756;2023-05-12T14:22:07;99788.31;;;22.29;23.98
42671;BME280;28283;55.426;37.756;2023-05-12T14:27:07;99761.25;;;21.90;24.03
42671;BME280;28283;55.426;37.756;2023-05-12T14:32:08;99780.09;;;22.29;23.97
42671;BME280;28283;55.426;37.756;2023-05-12T14:37:09;99779.72;;;22.16;23.58
42671;BME280;28283;55.426;37.756;2023-05-12T14:42:09;99789.88;;;22.20;23.60
42671;BME280;28283;55.426;37.756;2023-05-12T14:47:10;99787.28;;;21.98;23.89
42671;BME280;28283;55.426;37.756;2023-05-12T14:52:11;99782.06;;;21.86;23.95
42671;BME280;28283;55.426;37.756;2023-05-12T14:57:13;99776.06;;;21.89;24.51
42671;BME280;28283;55.426;37.756;2023-05-12T15:02:14;99776.31;;;21.88;24.37
42671;BME280;28283;55.426;37.756;2023-05-12T15:07:15;99784.56;;;21.93;24.98
42671;BME280;28283;55.426;37.756;2023-05-12T15:12:15;99781.66;;;21.67;25.22
42671;BME280;28283;55.426;37.756;2023-05-12T15:17:16;99777.16;;;21.93;24.97
42671;BME280;28283;55.426;37.756;2023-05-12T15:22:17;99766.78;;;21.53;25.01
42671;BME280;28283;55.426;37.756;2023-05-12T15:27:17;99788.25;;;21.71;25.26
42671;BME280;28283;55.426;37.756;2023-05-12T15:32:18;99756.19;;;21.29;26.07
42671;BME280;28283;55.426;37.756;2023-05-12T15:37:21;99765.22;;;21.30;26.41
42671;BME280;28283;55.426;37.756;2023-05-12T15:42:23;99767.63;;;21.21;26.96
42671;BME280;28283;55.426;37.756;2023-05-12T15:47:24;99771.56;;;21.35;26.46
42671;BME280;28283;55.426;37.756;2023-05-12T15:52:24;99776.66;;;21.54;26.65
42671;BME280;28283;55.426;37.756;2023-05-12T15:57:27;99773.16;;;21.31;26.73
42671;BME280;28283;55.426;37.756;2023-05-12T16:02:27;99760.56;;;21.25;26.85
42671;BME280;28283;55.426;37.756;2023-05-12T16:07:28;99780.88;;;21.40;27.28
42671;BME280;28283;55.426;37.756;2023-05-12T16:12:30;99766.50;;;21.17;27.43
42671;BME280;28283;55.426;37.756;2023-05-12T16:17:31;99772.22;;;21.48;27.44
42671;BME280;28283;55.426;37.756;2023-05-12T16:22:33;99762.78;;;21.28;27.59
42671;BME280;28283;55.426;37.756;2023-05-12T16:27:33;99761.41;;;21.31;27.96
42671;BME280;28283;55.426;37.756;2023-05-12T16:32:35;99769.94;;;21.40;27.68
42671;BME280;28283;55.426;37.756;2023-05-12T16:37:36;99782.75;;;21.66;27.65
42671;BME280;28283;55.426;37.756;2023-05-12T16:42:37;99767.84;;;21.14;28.55
42671;BME280;28283;55.426;37.756;2023-05-12T16:47:37;99775.00;;;21.21;28.53
42671;BME280;28283;55.426;37.756;2023-05-12T16:52:38;99761.06;;;20.63;29.48
42671;BME280;28283;55.426;37.756;2023-05-12T16:57:38;99779.00;;;20.81;29.32
42671;BME280;28283;55.426;37.756;2023-05-12T17:02:39;99779.34;;;20.40;29.78
42671;BME280;28283;55.426;37.756;2023-05-12T17:07:40;99781.38;;;20.50;29.93
42671;BME280;28283;55.426;37.756;2023-05-12T17:12:41;99773.47;;;20.26;30.21
42671;BME280;28283;55.426;37.756;2023-05-12T17:17:42;99796.00;;;20.38;30.02
42671;BME280;28283;55.426;37.756;2023-05-12T17:22:43;99769.91;;;19.81;30.54
42671;BME280;28283;55.426;37.756;2023-05-12T17:27:47;99794.94;;;19.78;30.83
42671;BME280;28283;55.426;37.756;2023-05-12T17:32:49;99766.19;;;19.54;31.10
42671;BME280;28283;55.426;37.756;2023-05-12T17:37:50;99804.44;;;19.59;31.56
42671;BME280;28283;55.426;37.756;2023-05-12T17:42:53;99782.81;;;19.35;31.25
42671;BME280;28283;55.426;37.756;2023-05-12T17:47:54;99805.63;;;19.29;32.17
42671;BME280;28283;55.426;37.756;2023-05-12T17:52:56;99810.94;;;19.07;32.61
42671;BME280;28283;55.426;37.756;2023-05-12T17:57:56;99801.69;;;18.91;33.27
42671;BME280;28283;55.426;37.756;2023-05-12T18:02:57;99807.97;;;18.80;33.82
42671;BME280;28283;55.426;37.756;2023-05-12T18:08:01;99807.94;;;18.63;33.66
42671;BME280;28283;55.426;37.756;2023-05-12T18:13:02;99801.03;;;18.43;34.28
42671;BME280;28283;55.426;37.756;2023-05-12T18:18:03;99817.13;;;18.45;34.57
42671;BME280;28283;55.426;37.756;2023-05-12T18:23:04;99806.38;;;18.26;34.92
42671;BME280;28283;55.426;37.756;2023-05-12T18:28:04;99823.06;;;18.30;34.25
42671;BME280;28283;55.426;37.756;2023-05-12T18:33:07;99818.00;;;18.22;34.76
42671;BME280;28283;55.426;37.756;2023-05-12T18:38:08;99828.44;;;18.13;34.42
42671;BME280;28283;55.426;37.756;2023-05-12T18:43:10;99820.16;;;18.08;34.39
42671;BME280;28283;55.426;37.756;2023-05-12T18:48:11;99822.88;;;17.84;35.22
42671;BME280;28283;55.426;37.756;2023-05-12T18:53:12;99824.16;;;17.82;34.55
42671;BME280;28283;55.426;37.756;2023-05-12T18:58:14;99821.94;;;17.79;34.50
42671;BME280;28283;55.426;37.756;2023-05-12T19:03:15;99830.31;;;17.77;35.70
42671;BME280;28283;55.426;37.756;2023-05-12T19:08:16;99806.66;;;17.42;36.18
42671;BME280;28283;55.426;37.756;2023-05-12T19:13:19;99807.34;;;17.26;36.02
42671;BME280;28283;55.426;37.756;2023-05-12T19:18:20;99827.06;;;17.21;36.37
42671;BME280;28283;55.426;37.756;2023-05-12T19:23:20;99822.53;;;17.03;36.83
42671;BME280;28283;55.426;37.756;2023-05-12T19:28:21;99826.03;;;16.92;36.57
42671;BME280;28283;55.426;37.756;2023-05-12T19:33:22;99821.44;;;16.92;37.45
42671;BME280;28283;55.426;37.756;2023-05-12T19:38:24;99822.16;;;16.69;37.50
42671;BME280;28283;55.426;37.756;2023-05-12T19:43:24;99820.94;;;16.84;37.17
42671;BME280;28283;55.426;37.756;2023-05-12T19:48:25;99821.25;;;16.57;37.79
42671;BME280;28283;55.426;37.756;2023-05-12T19:53:26;99825.41;;;16.59;37.55
42671;BME280;28283;55.426;37.756;2023-05-12T19:58:27;99822.63;;;16.48;37.67
42671;BME280;28283;55.426;37.756;2023-05-12T20:03:27;99833.13;;;16.44;37.52
42671;BME280;28283;55.426;37.756;2023-05-12T20:08:28;99823.09;;;16.26;38.36
42671;BME280;28283;55.426;37.756;2023-05-12T20:13:30;99812.34;;;16.01;38.45
42671;BME280;28283;55.426;37.756;2023-05-12T20:18:31;99827.00;;;15.93;38.84
42671;BME280;28283;55.426;37.756;2023-05-12T20:23:31;99824.16;;;15.88;39.26
42671;BME280;28283;55.426;37.756;2023-05-12T20:28:32;99826.63;;;15.90;39.23
42671;BME280;28283;55.426;37.756;2023-05-12T20:33:33;99823.03;;;15.71;38.98
42671;BME280;28283;55.426;37.756;2023-05-12T20:38:34;99830.41;;;15.63;39.40
42671;BME280;28283;55.426;37.756;2023-05-12T20:43:34;99828.63;;;15.51;39.35
42671;BME280;28283;55.426;37.756;2023-05-12T20:48:35;99821.16;;;15.46;39.51
42671;BME280;28283;55.426;37.756;2023-05-12T20:53:36;99827.47;;;15.40;39.38
42671;BME280;28283;55.426;37.756;2023-05-12T20:58:36;99834.97;;;15.38;40.05
42671;BME280;28283;55.426;37.756;2023-05-12T21:03:37;99832.16;;;15.26;40.16
42671;BME280;28283;55.426;37.756;2023-05-12T21:08:38;99839.16;;;15.08;40.46
42671;BME280;28283;55.426;37.756;2023-05-12T21:13:39;99831.19;;;14.82;40.79
42671;BME280;28283;55.426;37.756;2023-05-12T21:18:39;99828.28;;;14.83;40.58
42671;BME280;28283;55.426;37.756;2023-05-12T21:23:40;99834.09;;;14.80;40.39
42671;BME280;28283;55.426;37.756;2023-05-12T21:28:41;99828.81;;;14.60;40.89
42671;BME280;28283;55.426;37.756;2023-05-12T21:33:41;99820.47;;;14.55;40.90
42671;BME280;28283;55.426;37.756;2023-05-12T21:38:42;99833.38;;;14.66;40.67
42671;BME280;28283;55.426;37.756;2023-05-12T21:43:43;99839.81;;;14.65;40.40
42671;BME280;28283;55.426;37.756;2023-05-12T21:48:43;99821.75;;;14.52;41.17
42671;BME280;28283;55.426;37.756;2023-05-12T21:53:44;99828.19;;;14.51;40.60
42671;BME280;28283;55.426;37.756;2023-05-12T21:58:45;99821.38;;;14.42;40.43
42671;BME280;28283;55.426;37.756;2023-05-12T22:03:45;99823.25;;;14.42;40.91
42671;BME280;28283;55.426;37.756;2023-05-12T22:08:46;99822.25;;;14.23;41.50
42671;BME280;28283;55.426;37.756;2023-05-12T22:13:47;99826.06;;;14.08;41.45
42671;BME280;28283;55.426;37.756;2023-05-12T22:18:47;99814.47;;;13.94;42.31
42671;BME280;28283;55.426;37.756;2023-05-12T22:23:48;99825.91;;;13.97;41.46
42671;BME280;28283;55.426;37.756;2023-05-12T22:28:49;99816.56;;;13.86;41.81
42671;BME280;28283;55.426;37.756;2023-05-12T22:33:49;99831.97;;;13.79;42.60
42671;BME280;28283;55.426;37.756;2023-05-12T22:38:50;99831.97;;;13.52;42.95
42671;BME280;28283;55.426;37.756;2023-05-12T22:43:51;99809.34;;;13.46;42.75
42671;BME280;28283;55.426;37.756;2023-05-12T22:48:51;99833.22;;;13.56;42.56
42671;BME280;28283;55.426;37.756;2023-05-12T22:53:52;99822.00;;;13.39;42.87
42671;BME280;28283;55.426;37.756;2023-05-12T22:58:53;99829.91;;;13.41;42.62
42671;BME280;28283;55.426;37.756;2023-05-12T23:03:53;99820.13;;;13.33;43.10
42671;BME280;28283;55.426;37.756;2023-05-12T23:08:54;99830.31;;;13.38;43.58
42671;BME280;28283;55.426;37.756;2023-05-12T23:13:55;99824.84;;;13.24;43.42
42671;BME280;28283;55.426;37.756;2023-05-12T23:18:55;99812.63;;;13.08;43.72
42671;BME280;28283;55.426;37.756;2023-05-12T23:23:56;99826.13;;;13.08;44.09
42671;BME280;28283;55.426;37.756;2023-05-12T23:28:57;99827.13;;;12.87;44.62
42671;BME280;28283;55.426;37.756;2023-05-12T23:33:57;99815.84;;;12.70;46.15
42671;BME280;28283;55.426;37.756;2023-05-12T23:38:58;99830.97;;;12.58;46.07
42671;BME280;28283;55.426;37.756;2023-05-12T23:43:59;99822.34;;;12.34;46.99
42671;BME280;28283;55.426;37.756;2023-05-12T23:48:59;99823.03;;;12.36;47.16
42671;BME280;28283;55.426;37.756;2023-05-12T23:54:00;99820.69;;;12.27;47.35
42671;BME280;28283;55.426;37.756;2023-05-12T23:59:01;99815.88;;;12.15;47.26
